St Mary's Airport St Mary's US
ICAO: PASM
IATA:
Category: Medium
Scheduled Services:

Elevation: 312 ft
TransAlt. 18000 ft.

Airport Communications:
AWOS 3:128.7
ANCHORAGE CNTR:124
CTAF:122.3
KENAI RDO:122.35
TWEB:23

PASM Zoom In..

If you have problems with the map follow the link
https://www.worldairports.se/pages/airport.php?
ICAO=PASM

Runways:

(A) RW 06 length 1520 ft width 60 ft
LOC 109.10 / hdg 62

(B) RW 17 length 6008 ft width 150 ft
LOC 109.10 / hdg 170

(C) RW 24 length 1520 ft width 60 ft
LOC 109.10 / hdg 242

(D) RW 35 length 6008 ft width 150 ft
LOC 109.10 / hdg 350

Location; PASM
Day. 22 / Time. 16.02 Zulu
* Altimeter: 29.72
* Temperature: -16° c. -3.2°f.
* Wind from: 250° Speed 05 kn.
Dewpoint: -18° c.
Visibility: 10 Statute Miles.
Clouds: Scattered 1800 ft.

PASM 221602Z AUTO 25005KT 10SM SCT018 M16/M18 A2972 RMK AO2 FZRANO


Wind From 250°
Speed 05 kn.

 
 
jpsmedia worldairports.se 2020   terms of use